createdAt,value
2018-07-23T00:00:37.084Z,66.02
2018-07-23T00:03:06.469Z,65.63
2018-07-23T00:05:35.778Z,65.88
2018-07-23T00:08:05.991Z,65.82
2018-07-23T00:10:35.554Z,66.14
2018-07-23T00:13:05.345Z,66.58
2018-07-23T00:15:34.949Z,66.27
2018-07-23T00:18:04.436Z,66.02
2018-07-23T00:20:33.860Z,66.25
2018-07-23T00:23:04.216Z,66.17
2018-07-23T00:25:33.614Z,66.45
2018-07-23T00:28:02.950Z,67.10
2018-07-23T00:30:32.833Z,67.11
2018-07-23T00:33:02.637Z,67.09
2018-07-23T00:35:32.127Z,67.10
2018-07-23T00:38:01.859Z,66.82
2018-07-23T00:40:31.439Z,66.55
2018-07-23T00:43:00.999Z,67.08
2018-07-23T00:45:30.820Z,66.79
2018-07-23T00:48:00.727Z,66.87
2018-07-23T00:50:30.028Z,66.47
2018-07-23T00:52:59.677Z,66.67
2018-07-23T00:55:29.410Z,66.38
2018-07-23T00:57:58.835Z,66.58
2018-07-23T01:00:28.454Z,66.79
2018-07-23T01:03:02.281Z,66.67
2018-07-23T01:05:32.281Z,66.06
2018-07-23T01:08:01.602Z,66.22
2018-07-23T01:10:30.902Z,65.90
2018-07-23T01:13:00.737Z,65.69
2018-07-23T01:15:30.086Z,65.98
2018-07-23T01:17:59.590Z,66.13
2018-07-23T01:20:29.905Z,66.08
2018-07-23T01:22:59.257Z,66.19
2018-07-23T01:25:28.766Z,66.38
2018-07-23T01:27:58.715Z,66.85
2018-07-23T01:30:28.218Z,66.77
2018-07-23T01:32:57.508Z,67.09
2018-07-23T01:35:27.515Z,67.17
2018-07-23T01:37:57.080Z,66.90
2018-07-23T01:40:26.649Z,67.26
2018-07-23T01:42:56.332Z,66.94
2018-07-23T01:45:25.964Z,67.64
2018-07-23T01:47:55.342Z,67.55
2018-07-23T01:50:25.182Z,67.74
2018-07-23T01:52:54.738Z,67.42
2018-07-23T01:55:24.109Z,67.37
2018-07-23T01:57:54.094Z,67.86
2018-07-23T02:00:23.754Z,67.59
2018-07-23T02:02:53.188Z,67.96
2018-07-23T02:05:22.922Z,68.24
2018-07-23T02:07:52.745Z,68.30
2018-07-23T02:10:22.080Z,68.03
2018-07-23T02:12:51.670Z,67.82
2018-07-23T02:15:21.125Z,68.17
2018-07-23T02:17:50.588Z,68.20
2018-07-23T02:20:20.262Z,68.62
2018-07-23T02:22:49.974Z,69.25
2018-07-23T02:25:19.484Z,68.99
2018-07-23T02:27:49.253Z,69.27
2018-07-23T02:30:18.744Z,69.29
2018-07-23T02:32:48.232Z,69.52
2018-07-23T02:35:17.810Z,69.87
2018-07-23T02:37:47.346Z,69.63
2018-07-23T02:40:16.960Z,69.95
2018-07-23T02:42:46.693Z,70.04
2018-07-23T02:45:16.197Z,69.99
2018-07-23T02:47:45.760Z,69.81
2018-07-23T02:50:15.370Z,69.89
2018-07-23T02:52:44.867Z,69.87
2018-07-23T02:55:14.602Z,69.93
2018-07-23T02:57:44.069Z,70.06
2018-07-23T03:00:13.533Z,70.01
2018-07-23T03:02:43.299Z,69.95
2018-07-23T03:05:12.908Z,69.93
2018-07-23T03:07:42.221Z,70.39
2018-07-23T03:10:11.810Z,70.40
2018-07-23T03:12:41.427Z,70.52
2018-07-23T03:15:11.076Z,70.64
2018-07-23T03:17:40.547Z,70.88
2018-07-23T03:20:10.344Z,70.95
2018-07-23T03:22:39.501Z,71.00
2018-07-23T03:25:09.048Z,70.75
2018-07-23T03:27:39.023Z,70.51
2018-07-23T03:30:08.722Z,70.55
2018-07-23T03:32:38.168Z,70.50
2018-07-23T03:35:07.637Z,70.82
2018-07-23T03:37:38.454Z,70.76
2018-07-23T03:40:07.934Z,70.61
2018-07-23T03:42:37.413Z,70.68
2018-07-23T03:45:07.632Z,70.83
2018-07-23T03:47:36.990Z,71.11
2018-07-23T03:50:07.376Z,70.63
2018-07-23T03:52:37.009Z,70.44
2018-07-23T03:55:06.532Z,70.43
2018-07-23T03:57:36.316Z,70.21
2018-07-23T04:00:05.957Z,70.71
2018-07-23T04:02:35.525Z,70.70
2018-07-23T04:05:06.393Z,70.95
2018-07-23T04:07:35.850Z,70.92
2018-07-23T04:10:05.904Z,70.16
2018-07-23T04:12:35.511Z,70.21
2018-07-23T04:15:06.203Z,69.76
2018-07-23T04:17:35.644Z,69.68
2018-07-23T04:20:05.534Z,69.11
2018-07-23T04:22:34.840Z,69.29
2018-07-23T04:25:04.386Z,69.13
2018-07-23T04:27:34.247Z,69.57
2018-07-23T04:30:04.369Z,69.76
2018-07-23T04:32:33.896Z,69.83
2018-07-23T04:35:03.644Z,69.62
2018-07-23T04:37:33.140Z,69.64
2018-07-23T04:40:03.021Z,69.18
2018-07-23T04:42:32.821Z,69.37
2018-07-23T04:45:02.372Z,68.86
2018-07-23T04:47:32.280Z,68.72
2018-07-23T04:50:02.436Z,69.04
2018-07-23T04:52:32.245Z,69.54
2018-07-23T04:55:01.620Z,69.12
2018-07-23T04:57:31.330Z,69.14
2018-07-23T05:00:01.176Z,67.98
2018-07-23T05:02:30.744Z,67.76
2018-07-23T05:05:00.477Z,68.04
2018-07-23T05:07:29.907Z,67.68
2018-07-23T05:09:59.252Z,68.08
2018-07-23T05:12:29.158Z,68.53
2018-07-23T05:14:58.436Z,68.43
2018-07-23T05:17:27.721Z,68.18
2018-07-23T05:19:57.524Z,67.56
2018-07-23T05:22:26.843Z,67.91
2018-07-23T05:24:55.994Z,67.61
2018-07-23T05:27:26.025Z,67.95
2018-07-23T05:29:55.482Z,67.38
2018-07-23T05:32:24.848Z,67.26
2018-07-23T05:34:54.685Z,67.78
2018-07-23T05:37:24.303Z,67.13
2018-07-23T05:39:53.952Z,67.58
2018-07-23T05:42:23.772Z,67.74
2018-07-23T05:44:53.479Z,68.12
2018-07-23T05:47:22.998Z,68.03
2018-07-23T05:49:52.712Z,67.16
2018-07-23T05:52:22.743Z,67.26
2018-07-23T05:54:52.135Z,67.11
2018-07-23T05:57:21.428Z,66.74
2018-07-23T05:59:51.048Z,66.30
2018-07-23T06:02:20.540Z,66.40
2018-07-23T06:04:49.859Z,66.12
2018-07-23T06:07:20.060Z,66.05
2018-07-23T06:09:49.771Z,66.42
2018-07-23T06:12:18.978Z,66.24
2018-07-23T06:14:48.425Z,66.38
2018-07-23T06:17:18.000Z,66.52
2018-07-23T06:19:47.088Z,66.99
2018-07-23T06:22:16.776Z,66.51
2018-07-23T06:24:46.316Z,66.49
2018-07-23T06:27:15.689Z,66.22
2018-07-23T06:29:45.366Z,66.31
2018-07-23T06:32:14.984Z,66.51
2018-07-23T06:34:44.631Z,65.97
2018-07-23T06:37:14.102Z,66.50
2018-07-23T06:39:43.676Z,66.54
2018-07-23T06:42:13.232Z,66.10
2018-07-23T06:44:42.904Z,66.51
2018-07-23T06:47:12.940Z,66.62
2018-07-23T06:49:42.364Z,66.97
2018-07-23T06:52:12.146Z,66.85
2018-07-23T06:54:41.829Z,66.64
2018-07-23T06:57:11.910Z,66.15
2018-07-23T06:59:41.615Z,66.18
2018-07-23T07:02:10.936Z,66.50
2018-07-23T07:04:40.685Z,66.69
2018-07-23T07:07:10.338Z,66.60
2018-07-23T07:09:40.058Z,66.41
2018-07-23T07:12:09.928Z,66.64
2018-07-23T07:14:39.473Z,67.15
2018-07-23T07:17:09.143Z,67.38
2018-07-23T07:19:38.849Z,66.70
2018-07-23T07:22:08.519Z,67.20
2018-07-23T07:24:37.810Z,67.03
2018-07-23T07:27:07.318Z,66.83
2018-07-23T07:29:36.702Z,66.40
2018-07-23T07:32:05.963Z,66.57
2018-07-23T07:34:35.677Z,67.03
2018-07-23T07:37:05.902Z,66.29
2018-07-23T07:39:35.280Z,65.95
2018-07-23T07:42:04.963Z,65.60
2018-07-23T07:44:35.005Z,64.93
2018-07-23T07:47:04.496Z,65.12
2018-07-23T07:49:34.227Z,65.07
2018-07-23T07:52:04.550Z,64.62
2018-07-23T07:54:33.900Z,64.42
2018-07-23T07:57:03.621Z,64.12
2018-07-23T07:59:33.340Z,63.85
2018-07-23T08:02:03.598Z,63.81
2018-07-23T08:04:33.543Z,64.41
2018-07-23T08:07:03.456Z,64.35
2018-07-23T08:09:33.028Z,63.64
2018-07-23T08:12:03.051Z,64.09
2018-07-23T08:14:32.440Z,63.04
2018-07-23T08:17:01.809Z,62.62
2018-07-23T08:19:31.554Z,63.16
2018-07-23T08:22:00.927Z,62.97
2018-07-23T08:24:30.556Z,63.47
2018-07-23T08:27:00.308Z,62.95
2018-07-23T08:29:29.857Z,63.74
2018-07-23T08:31:59.582Z,63.68
2018-07-23T08:34:29.372Z,63.85
2018-07-23T08:36:58.835Z,63.26
2018-07-23T08:39:28.817Z,63.37
2018-07-23T08:41:58.563Z,64.23
2018-07-23T08:44:28.338Z,63.73
2018-07-23T08:46:57.912Z,63.56
2018-07-23T08:49:27.743Z,64.69
2018-07-23T08:51:57.404Z,64.23
2018-07-23T08:54:26.892Z,64.52
2018-07-23T08:56:56.564Z,65.20
2018-07-23T08:59:26.370Z,65.39
2018-07-23T09:01:56.071Z,64.81
2018-07-23T09:04:25.514Z,64.47
2018-07-23T09:06:55.431Z,64.06
2018-07-23T09:09:26.021Z,63.08
2018-07-23T09:11:55.941Z,62.97
2018-07-23T09:14:25.526Z,63.06
2018-07-23T09:16:54.802Z,62.02
2018-07-23T09:19:24.779Z,62.02
2018-07-23T09:21:54.358Z,60.75
2018-07-23T09:24:23.865Z,59.86
2018-07-23T09:26:53.794Z,60.12
2018-07-23T09:29:23.109Z,60.73
2018-07-23T09:31:52.427Z,60.22
2018-07-23T09:34:22.472Z,60.88
2018-07-23T09:36:51.820Z,60.48
2018-07-23T09:39:21.378Z,60.99
2018-07-23T09:41:51.239Z,60.21
2018-07-23T09:44:20.707Z,61.70
2018-07-23T09:46:50.171Z,60.74
2018-07-23T09:49:19.826Z,60.07
2018-07-23T09:51:49.438Z,60.75
2018-07-23T09:54:19.046Z,60.90
2018-07-23T09:56:48.923Z,61.22
2018-07-23T09:59:18.751Z,60.82
2018-07-23T10:01:48.065Z,60.37
2018-07-23T10:04:17.625Z,60.82
2018-07-23T10:06:47.275Z,59.24
2018-07-23T10:09:16.512Z,60.37
2018-07-23T10:11:46.226Z,60.98
2018-07-23T10:14:15.966Z,60.17
2018-07-23T10:16:45.626Z,60.31
2018-07-23T10:19:15.147Z,60.02
2018-07-23T10:21:44.831Z,60.54
2018-07-23T10:24:14.259Z,59.83
2018-07-23T10:26:44.389Z,58.95
2018-07-23T10:29:14.258Z,59.07
2018-07-23T10:31:43.682Z,59.22
2018-07-23T10:34:13.006Z,58.88
2018-07-23T10:36:42.986Z,59.41
2018-07-23T10:39:12.287Z,60.33
2018-07-23T10:41:42.085Z,59.05
2018-07-23T10:44:11.583Z,57.53
2018-07-23T10:46:40.890Z,57.40
2018-07-23T10:49:10.519Z,57.74
2018-07-23T10:51:40.285Z,58.69
2018-07-23T10:54:10.055Z,57.60
2018-07-23T10:56:39.715Z,57.97
2018-07-23T10:59:09.129Z,58.78
2018-07-23T11:01:38.756Z,58.89
2018-07-23T11:04:08.513Z,58.61
2018-07-23T11:06:38.034Z,59.85
2018-07-23T11:09:08.796Z,59.99
2018-07-23T11:11:38.589Z,59.76
2018-07-23T11:14:08.495Z,58.91
2018-07-23T11:16:38.224Z,59.02
2018-07-23T11:19:07.645Z,58.79
2018-07-23T11:21:37.455Z,59.48
2018-07-23T11:24:07.189Z,58.85
2018-07-23T11:26:36.649Z,58.05
2018-07-23T11:29:06.325Z,59.03
2018-07-23T11:31:36.013Z,58.42
2018-07-23T11:34:06.781Z,59.07
2018-07-23T11:36:36.210Z,58.46
2018-07-23T11:39:08.347Z,57.52
2018-07-23T11:41:38.108Z,58.01
2018-07-23T11:44:07.617Z,57.82
2018-07-23T11:46:37.037Z,57.62
2018-07-23T11:49:06.892Z,57.55
2018-07-23T11:51:36.443Z,58.08
2018-07-23T11:54:06.187Z,56.85
2018-07-23T11:56:35.843Z,54.71
2018-07-23T11:59:06.542Z,55.20
2018-07-23T12:01:36.157Z,54.97
2018-07-23T12:04:10.405Z,54.97
2018-07-23T12:06:35.204Z,54.19
2018-07-23T12:09:07.342Z,54.43
2018-07-23T12:11:37.216Z,54.66
2018-07-23T12:14:06.955Z,53.77
2018-07-23T12:16:37.199Z,53.01
2018-07-23T12:19:07.431Z,51.48
2018-07-23T12:21:36.895Z,50.84
2018-07-23T12:24:06.501Z,51.63
2018-07-23T12:26:36.013Z,50.58
2018-07-23T12:29:06.676Z,51.41
2018-07-23T12:31:36.148Z,52.43
2018-07-23T12:34:06.469Z,54.73
2018-07-23T12:36:36.396Z,54.56
2018-07-23T12:39:09.100Z,53.92
2018-07-23T12:41:38.857Z,53.79
2018-07-23T12:44:08.433Z,53.68
2018-07-23T12:46:38.241Z,53.21
2018-07-23T12:49:08.078Z,52.83
2018-07-23T12:51:37.797Z,53.65
2018-07-23T12:54:07.641Z,53.31
2018-07-23T12:56:37.372Z,52.96
2018-07-23T12:59:06.779Z,53.31
2018-07-23T13:01:36.727Z,52.90
2018-07-23T13:04:05.998Z,52.40
2018-07-23T13:06:35.461Z,51.57
2018-07-23T13:09:07.360Z,51.58
2018-07-23T13:11:36.792Z,51.34
2018-07-23T13:14:06.490Z,51.93
2018-07-23T13:16:36.078Z,52.62
2018-07-23T13:19:05.533Z,52.26
2018-07-23T13:21:35.327Z,51.47
2018-07-23T13:24:05.007Z,51.04
2018-07-23T13:26:34.541Z,50.89
2018-07-23T13:29:04.505Z,50.41
2018-07-23T13:31:34.155Z,51.40
2018-07-23T13:34:04.231Z,50.93
2018-07-23T13:36:33.692Z,50.28
2018-07-23T13:39:03.344Z,49.99
2018-07-23T13:41:33.042Z,50.27
2018-07-23T13:44:02.404Z,50.41
2018-07-23T13:46:31.970Z,50.27
2018-07-23T13:49:01.759Z,50.54
2018-07-23T13:51:31.073Z,50.65
2018-07-23T13:54:00.580Z,50.58
2018-07-23T13:56:30.144Z,50.75
2018-07-23T13:58:59.356Z,51.21
2018-07-23T14:01:29.096Z,51.44
2018-07-23T14:03:58.678Z,51.96
2018-07-23T14:06:28.700Z,51.16
2018-07-23T14:08:58.564Z,52.07
2018-07-23T14:11:28.471Z,51.56
2018-07-23T14:13:57.826Z,51.46
2018-07-23T14:16:28.002Z,51.62
2018-07-23T14:18:57.776Z,51.68
2018-07-23T14:21:27.621Z,51.55
2018-07-23T14:23:57.388Z,51.51
2018-07-23T14:27:31.396Z,51.87
2018-07-23T14:30:01.448Z,51.45
2018-07-23T14:32:31.283Z,51.23
2018-07-23T14:35:00.777Z,49.68
2018-07-23T14:37:30.236Z,50.59
2018-07-23T14:39:59.748Z,50.87
2018-07-23T14:42:29.193Z,50.41
2018-07-23T14:44:58.831Z,51.45
2018-07-23T14:47:29.579Z,50.92
2018-07-23T14:49:59.063Z,51.15
2018-07-23T14:52:28.612Z,51.47
2018-07-23T14:54:58.349Z,52.18
2018-07-23T14:57:27.933Z,52.78
2018-07-23T14:59:57.532Z,52.86
2018-07-23T15:02:28.114Z,52.11
2018-07-23T15:04:57.777Z,52.49
2018-07-23T15:07:27.642Z,52.94
2018-07-23T15:09:57.528Z,52.81
2018-07-23T15:12:27.583Z,52.61
2018-07-23T15:14:57.024Z,52.55
2018-07-23T15:17:26.916Z,52.28
2018-07-23T15:19:56.574Z,52.46
2018-07-23T15:22:27.341Z,52.90
2018-07-23T15:24:57.489Z,52.74
2018-07-23T15:27:26.949Z,52.73
2018-07-23T15:29:56.823Z,53.21
2018-07-23T15:32:26.582Z,53.74
2018-07-23T15:34:56.053Z,53.13
2018-07-23T15:37:25.859Z,53.51
2018-07-23T15:39:55.697Z,53.00
2018-07-23T15:42:25.245Z,53.49
2018-07-23T15:44:54.968Z,53.60
2018-07-23T15:47:24.563Z,53.19
2018-07-23T15:49:53.876Z,53.64
2018-07-23T15:52:23.687Z,54.91
2018-07-23T15:54:53.457Z,54.50
2018-07-23T15:57:22.952Z,54.02
2018-07-23T15:59:52.621Z,54.20
2018-07-23T16:02:22.496Z,54.54
2018-07-23T16:04:51.971Z,53.87
2018-07-23T16:07:21.785Z,54.18
2018-07-23T16:09:51.317Z,55.53
2018-07-23T16:12:20.764Z,54.90
2018-07-23T16:14:50.518Z,54.67
2018-07-23T16:17:20.282Z,55.28
2018-07-23T16:19:49.573Z,55.26
2018-07-23T16:22:19.349Z,55.99
2018-07-23T16:24:49.273Z,56.05
2018-07-23T16:27:19.027Z,55.99
2018-07-23T16:29:48.864Z,55.86
2018-07-23T16:32:18.484Z,56.23
2018-07-23T16:34:47.901Z,57.43
2018-07-23T16:37:17.724Z,57.33
2018-07-23T16:39:47.405Z,57.10
2018-07-23T16:42:16.550Z,57.88
2018-07-23T16:44:46.657Z,57.19
2018-07-23T16:47:16.263Z,58.19
2018-07-23T16:49:45.670Z,58.24
2018-07-23T16:52:15.229Z,58.96
2018-07-23T16:54:44.886Z,58.86
2018-07-23T16:57:14.448Z,58.45
2018-07-23T16:59:44.203Z,60.12
2018-07-23T17:02:13.848Z,59.84
2018-07-23T17:04:43.176Z,59.42
2018-07-23T17:07:19.459Z,59.81
2018-07-23T17:09:48.963Z,59.97
2018-07-23T17:12:18.368Z,59.59
2018-07-23T17:14:47.909Z,59.33
2018-07-23T17:17:17.361Z,59.75
2018-07-23T17:19:46.953Z,60.71
2018-07-23T17:22:16.689Z,60.06
2018-07-23T17:24:46.173Z,61.37
2018-07-23T17:27:15.685Z,61.94
2018-07-23T17:29:45.277Z,61.74
2018-07-23T17:32:14.451Z,62.26
2018-07-23T17:34:43.947Z,61.44
2018-07-23T17:37:13.327Z,61.81
2018-07-23T17:39:42.804Z,62.32
2018-07-23T17:42:12.383Z,62.97
2018-07-23T17:44:41.781Z,62.76
2018-07-23T17:47:11.158Z,62.48
2018-07-23T17:49:41.078Z,63.53
2018-07-23T17:52:10.633Z,63.98
2018-07-23T17:54:40.136Z,63.31
2018-07-23T17:57:09.925Z,63.58
2018-07-23T17:59:39.520Z,63.66
2018-07-23T18:02:08.942Z,63.65
2018-07-23T18:04:38.756Z,63.83
2018-07-23T18:07:08.498Z,63.50
2018-07-23T18:09:37.757Z,63.66
2018-07-23T18:12:07.566Z,63.56
2018-07-23T18:14:37.693Z,63.58
2018-07-23T18:17:07.180Z,63.72
2018-07-23T18:19:36.589Z,64.34
2018-07-23T18:22:06.518Z,64.62
2018-07-23T18:24:36.197Z,64.22
2018-07-23T18:27:05.482Z,64.79
2018-07-23T18:29:35.538Z,64.84
2018-07-23T18:32:04.998Z,64.39
2018-07-23T18:34:34.795Z,65.03
2018-07-23T18:37:05.422Z,64.46
2018-07-23T18:39:34.814Z,65.53
2018-07-23T18:42:04.382Z,65.34
2018-07-23T18:44:34.055Z,65.49
2018-07-23T18:47:03.523Z,66.43
2018-07-23T18:49:44.881Z,66.90
2018-07-23T18:52:15.506Z,66.54
2018-07-23T18:54:46.179Z,66.34
2018-07-23T18:57:15.594Z,66.24
2018-07-23T18:59:45.039Z,66.82
2018-07-23T19:02:16.222Z,66.91
2018-07-23T19:04:45.871Z,66.83
2018-07-23T19:07:16.162Z,67.17
2018-07-23T19:09:45.849Z,67.26
2018-07-23T19:12:15.311Z,67.16
2018-07-23T19:14:44.902Z,66.95
2018-07-23T19:17:15.406Z,67.30
2018-07-23T19:19:44.949Z,68.13
2018-07-23T19:22:14.502Z,68.28
2018-07-23T19:24:44.375Z,68.10
2018-07-23T19:27:14.092Z,68.53
2018-07-23T19:29:43.862Z,68.43
2018-07-23T19:32:13.698Z,68.75
2018-07-23T19:34:43.460Z,68.57
2018-07-23T19:37:12.852Z,68.30
2018-07-23T19:39:42.502Z,68.15
2018-07-23T19:42:12.086Z,68.37
2018-07-23T19:44:41.622Z,68.91
2018-07-23T19:47:11.325Z,68.30
2018-07-23T19:49:41.305Z,68.14
2018-07-23T19:52:10.883Z,68.74
2018-07-23T19:54:41.053Z,68.98
2018-07-23T19:57:10.484Z,69.08
2018-07-23T19:59:39.909Z,68.27
2018-07-23T20:02:09.990Z,68.45
2018-07-23T20:04:39.556Z,67.88
2018-07-23T20:07:09.321Z,67.88
2018-07-23T20:09:39.096Z,67.35
2018-07-23T20:12:08.531Z,68.00
2018-07-23T20:14:37.935Z,67.91
2018-07-23T20:17:07.897Z,67.79
2018-07-23T20:19:37.304Z,67.46
2018-07-23T20:22:06.589Z,67.77
2018-07-23T20:24:36.881Z,67.70
2018-07-23T20:27:06.397Z,67.83
2018-07-23T20:29:35.941Z,68.09
2018-07-23T20:32:06.494Z,68.15
2018-07-23T20:34:35.821Z,68.06
2018-07-23T20:37:05.948Z,68.03
2018-07-23T20:39:35.616Z,68.35
2018-07-23T20:42:05.038Z,68.66
2018-07-23T20:44:34.648Z,68.24
2018-07-23T20:47:04.650Z,68.99
2018-07-23T20:49:34.188Z,68.44
2018-07-23T20:52:04.180Z,69.13
2018-07-23T20:54:33.792Z,68.75
2018-07-23T20:57:03.731Z,69.25
2018-07-23T20:59:33.234Z,69.04
2018-07-23T21:02:04.009Z,69.16
2018-07-23T21:04:33.613Z,69.05
2018-07-23T21:07:03.106Z,68.82
2018-07-23T21:09:33.026Z,68.90
2018-07-23T21:12:02.868Z,69.27
2018-07-23T21:14:32.283Z,69.11
2018-07-23T21:17:02.160Z,68.91
2018-07-23T21:19:31.712Z,68.78
2018-07-23T21:22:01.343Z,68.85
2018-07-23T21:24:31.199Z,69.36
2018-07-23T21:27:00.560Z,69.07
2018-07-23T21:29:30.192Z,68.71
2018-07-23T21:32:00.200Z,69.24
2018-07-23T21:34:29.784Z,68.83
2018-07-23T21:36:59.137Z,68.89
2018-07-23T21:39:29.308Z,69.20
2018-07-23T21:41:58.908Z,69.07
2018-07-23T21:44:28.676Z,69.12
2018-07-23T21:46:58.228Z,68.75
2018-07-23T21:49:27.641Z,68.88
2018-07-23T21:51:57.435Z,68.76
2018-07-23T21:54:26.993Z,68.65
2018-07-23T21:56:56.605Z,68.76
2018-07-23T21:59:25.891Z,68.41
2018-07-23T22:01:55.459Z,68.92
2018-07-23T22:04:25.286Z,69.04
2018-07-23T22:06:54.682Z,68.97
2018-07-23T22:09:24.400Z,68.84
2018-07-23T22:11:54.349Z,68.92
2018-07-23T22:14:23.866Z,68.76
2018-07-23T22:16:53.654Z,68.96
2018-07-23T22:19:23.025Z,68.86
2018-07-23T22:21:52.421Z,68.99
2018-07-23T22:24:22.849Z,69.12
2018-07-23T22:26:52.371Z,69.01
2018-07-23T22:29:22.184Z,69.13
2018-07-23T22:31:51.735Z,69.50
2018-07-23T22:34:21.085Z,69.60
2018-07-23T22:36:50.690Z,69.45
2018-07-23T22:39:20.331Z,69.88
2018-07-23T22:41:49.787Z,69.81
2018-07-23T22:44:19.666Z,70.22
2018-07-23T22:46:49.236Z,69.95
2018-07-23T22:49:18.611Z,70.00
2018-07-23T22:51:48.192Z,69.88
2018-07-23T22:54:17.965Z,70.31
2018-07-23T22:56:47.247Z,69.96
2018-07-23T22:59:16.993Z,70.42
2018-07-23T23:01:46.620Z,70.37
2018-07-23T23:04:16.880Z,70.60
2018-07-23T23:06:46.512Z,70.53
2018-07-23T23:09:16.000Z,70.70
2018-07-23T23:11:45.635Z,70.38
2018-07-23T23:14:15.203Z,70.60
2018-07-23T23:16:44.883Z,70.56
2018-07-23T23:19:14.244Z,70.58
2018-07-23T23:21:43.990Z,70.66
2018-07-23T23:24:13.403Z,70.94
2018-07-23T23:26:43.019Z,70.74
2018-07-23T23:29:12.951Z,70.94
2018-07-23T23:31:42.660Z,71.64
2018-07-23T23:34:12.060Z,71.74
2018-07-23T23:36:41.763Z,71.59
2018-07-23T23:39:12.365Z,71.59
2018-07-23T23:41:42.314Z,71.26
2018-07-23T23:44:11.752Z,71.76
2018-07-23T23:46:41.767Z,71.81
2018-07-23T23:49:11.151Z,71.96
2018-07-23T23:51:40.764Z,72.51
2018-07-23T23:54:10.898Z,72.05
2018-07-23T23:56:40.496Z,71.97
2018-07-23T23:59:09.781Z,72.12
